LFKC/CLY METAR and TAF weather

Enter ICAO airport designator
Station Type Date Time Source
LFKC METAR 2021/05/17 21:30 UTC NOAA

LFKC 172130Z AUTO 20010KT 170V230 CAVOK 16/07 Q1015


Station Type Date Time Source
LFKC Decoded METAR 2021/05/17 21:30 UTC NOAA

Calvi, France (LFKC) 42-32N 008-48E 58M
May 17, 2021 - 05:30 PM EDT / 2021.05.17 2130 UTC
Wind: from the SSW (200 degrees) at 12 MPH (10 KT) (direction variable):0
Visibility: greater than 7 mile(s):0
Temperature: 60 F (16 C)
Dew Point: 44 F (7 C)
Relative Humidity: 55%
Pressure (altimeter): 29.97 in. Hg (1015 hPa)
ob: LFKC 172130Z AUTO 20010KT 170V230 CAVOK 16/07 Q1015
cycle: 21

Station Type Date Time Source
LFKC TAF 2021/05/17 20:37 UTC NOAA

TAF LFKC 172033Z 1720/1815 CNL

Example: see airport list